Time;durP1;ratioP1;P1;durP2;ratioP2;P2;SDS_P1;SDS_P2;PMS_P1;PMS_P2;Temp;Humidity;BMP_temperature;BMP_pressure;BME280_temperature;BME280_humidity;BME280_pressure;Samples;Min_cycle;Max_cycle;Signal;HPM_P1;HPM_P2
2023/06/01 00:01:17;;;;;;;6.50;3.10;;;;;;;10.42;62.43;100588.55;102722;277;121338;-52
2023/06/01 00:03:54;;;;;;;5.10;2.80;;;;;;;10.45;62.47;100587.64;102726;277;105736;-51
2023/06/01 00:06:32;;;;;;;5.70;2.80;;;;;;;10.52;61.99;100584.19;102718;277;113847;-53
2023/06/01 00:09:07;;;;;;;5.40;3.20;;;;;;;10.59;61.69;100580.69;102725;277;92478;-52
2023/06/01 00:11:47;;;;;;;7.00;2.60;;;;;;;10.63;61.55;100580.53;102768;277;99124;-55
2023/06/01 00:14:28;;;;;;;5.30;2.50;;;;;;;10.65;61.22;100574.01;102544;277;121913;-54
2023/06/01 00:17:07;;;;;;;4.70;2.70;;;;;;;10.64;61.28;100572.61;102772;277;104268;-51
2023/06/01 00:19:47;;;;;;;3.20;2.50;;;;;;;10.63;60.98;100571.63;102706;277;113093;-51
2023/06/01 00:22:28;;;;;;;4.40;2.60;;;;;;;10.64;60.96;100571.06;102760;277;93906;-55
2023/06/01 00:25:06;;;;;;;3.70;2.60;;;;;;;10.61;60.96;100563.85;102521;277;96819;-55
2023/06/01 00:27:42;;;;;;;4.10;2.50;;;;;;;10.58;61.03;100564.00;102726;277;120084;-52
2023/06/01 00:30:18;;;;;;;7.60;2.80;;;;;;;10.55;61.32;100564.41;102554;277;107383;-52
2023/06/01 00:32:59;;;;;;;5.20;2.70;;;;;;;10.54;61.41;100563.91;102729;277;113767;-51
2023/06/01 00:35:39;;;;;;;3.90;2.50;;;;;;;10.50;61.42;100557.83;102502;278;94817;-52
2023/06/01 00:38:25;;;;;;;4.40;2.70;;;;;;;10.46;61.53;100556.88;102731;277;98064;-53
2023/06/01 00:41:06;;;;;;;6.00;2.70;;;;;;;10.41;61.58;100555.35;102689;277;119929;-52
2023/06/01 00:43:50;;;;;;;3.90;2.70;;;;;;;10.36;61.68;100553.81;102701;277;105139;-52
2023/06/01 00:46:31;;;;;;;8.00;2.60;;;;;;;10.31;61.67;100548.63;102721;277;113524;-55
2023/06/01 00:49:09;;;;;;;4.70;2.50;;;;;;;10.27;61.77;100548.11;102668;277;96642;-55
2023/06/01 00:51:50;;;;;;;4.50;2.40;;;;;;;10.25;61.95;100549.04;102769;277;97684;-55
2023/06/01 00:54:28;;;;;;;5.10;2.80;;;;;;;10.20;62.06;100549.98;102536;278;120372;-54
2023/06/01 00:57:08;;;;;;;4.90;3.20;;;;;;;10.19;62.01;100550.64;102740;277;104785;-53
2023/06/01 00:59:50;;;;;;;4.40;2.30;;;;;;;10.19;62.10;100548.17;102704;277;114317;-50
2023/06/01 01:02:25;;;;;;;3.10;2.30;;;;;;;10.20;62.08;100545.98;102563;277;94141;-54
2023/06/01 01:05:10;;;;;;;4.00;2.80;;;;;;;10.23;61.96;100545.06;102588;278;99319;-55
2023/06/01 01:08:08;;;;;;;4.90;2.90;;;;;;;10.23;61.86;100540.94;102777;277;120656;-54
2023/06/01 01:10:47;;;;;;;5.90;2.40;;;;;;;10.26;61.79;100540.65;102811;277;103729;-52
2023/06/01 01:13:32;;;;;;;3.40;2.30;;;;;;;10.26;61.54;100537.41;102756;277;115055;-51
2023/06/01 01:16:27;;;;;;;3.60;2.40;;;;;;;10.26;61.43;100541.66;102761;277;94139;-52
2023/06/01 01:19:21;;;;;;;3.80;2.50;;;;;;;10.22;61.40;100537.32;102823;277;96457;-50
2023/06/01 01:22:16;;;;;;;4.00;2.60;;;;;;;10.22;61.34;100538.72;102777;277;120055;-52
2023/06/01 01:25:18;;;;;;;3.40;2.10;;;;;;;10.25;61.15;100536.44;102488;277;105166;-52
2023/06/01 01:28:16;;;;;;;4.60;2.70;;;;;;;10.29;60.90;100532.45;102744;277;112983;-55
2023/06/01 01:30:52;;;;;;;4.60;2.40;;;;;;;10.36;60.59;100531.16;102690;277;93506;-54
2023/06/01 01:33:36;;;;;;;3.30;2.40;;;;;;;10.40;60.26;100524.98;102716;277;98257;-55
2023/06/01 01:36:19;;;;;;;2.80;2.20;;;;;;;10.43;59.98;100521.23;102733;277;120307;-52
2023/06/01 01:38:54;;;;;;;4.40;2.40;;;;;;;10.42;59.81;100519.75;102742;277;104032;-53
2023/06/01 01:41:34;;;;;;;6.00;2.70;;;;;;;10.41;59.95;100516.13;102771;277;112893;-54
2023/06/01 01:44:08;;;;;;;3.20;2.20;;;;;;;10.35;59.84;100516.58;102785;277;94572;-55
2023/06/01 01:46:46;;;;;;;;;;;;;;;10.35;59.96;100516.15;102785;277;96743;-53
2023/06/01 01:49:28;;;;;;;4.10;2.80;;;;;;;10.34;60.03;100511.30;102786;277;118746;-52
2023/06/01 01:52:20;;;;;;;3.90;2.40;;;;;;;10.37;60.01;100506.67;102796;277;105393;-56
2023/06/01 01:55:04;;;;;;;3.70;2.20;;;;;;;10.34;60.05;100509.01;102682;276;114421;-54
2023/06/01 01:57:43;;;;;;;4.50;2.20;;;;;;;10.33;59.92;100507.52;102731;277;94146;-52
2023/06/01 02:00:19;;;;;;;4.70;2.40;;;;;;;10.38;59.64;100500.75;102608;277;96588;-53
2023/06/01 02:02:53;;;;;;;4.50;2.50;;;;;;;10.40;59.66;100504.14;102724;277;119215;-51
2023/06/01 02:05:38;;;;;;;4.10;2.30;;;;;;;10.35;59.57;100505.58;102558;271;105519;-55
2023/06/01 02:08:18;;;;;;;6.70;2.30;;;;;;;10.29;59.41;100504.41;102687;277;114388;-57
2023/06/01 02:11:02;;;;;;;5.30;2.40;;;;;;;10.24;59.36;100502.15;102769;277;93323;-55
2023/06/01 02:13:42;;;;;;;4.40;2.40;;;;;;;10.21;59.40;100499.63;102546;278;97782;-56
2023/06/01 02:16:24;;;;;;;4.60;2.30;;;;;;;10.19;59.60;100494.14;102721;277;119157;-56
2023/06/01 02:19:10;;;;;;;3.30;2.10;;;;;;;10.13;59.60;100495.20;102735;277;106514;-56
2023/06/01 02:21:53;;;;;;;3.70;2.70;;;;;;;10.08;59.56;100496.85;102678;277;114512;-50
2023/06/01 02:24:35;;;;;;;3.80;2.30;;;;;;;10.04;59.79;100494.44;102747;277;93792;-51
2023/06/01 02:27:12;;;;;;;5.20;2.50;;;;;;;10.00;59.86;100492.70;102739;276;97781;-51
2023/06/01 02:29:48;;;;;;;3.80;2.40;;;;;;;9.97;60.01;100495.58;102799;277;119836;-51
2023/06/01 02:32:25;;;;;;;5.30;2.90;;;;;;;9.97;60.12;100495.45;102779;277;104099;-56
2023/06/01 02:35:06;;;;;;;4.20;2.70;;;;;;;9.99;60.11;100492.61;102731;277;113573;-55
2023/06/01 02:37:42;;;;;;;4.20;2.20;;;;;;;9.99;60.15;100490.48;102743;277;93958;-55
2023/06/01 02:40:26;;;;;;;5.20;2.30;;;;;;;9.98;60.19;100486.02;102775;276;96882;-55
2023/06/01 02:43:01;;;;;;;4.40;2.40;;;;;;;9.97;60.33;100484.78;102772;277;120570;-54
2023/06/01 02:45:45;;;;;;;5.20;2.40;;;;;;;10.00;60.33;100480.66;102739;277;106225;-51
2023/06/01 02:48:24;;;;;;;4.40;2.50;;;;;;;10.06;60.22;100482.33;102752;276;114752;-52
2023/06/01 02:51:03;;;;;;;4.80;2.80;;;;;;;10.10;60.43;100477.20;102727;277;94724;-55
2023/06/01 02:53:47;;;;;;;5.80;2.30;;;;;;;10.14;60.46;100475.64;102768;276;97540;-55
2023/06/01 02:56:30;;;;;;;3.80;2.40;;;;;;;10.19;60.29;100471.39;102530;277;120792;-55
2023/06/01 02:59:16;;;;;;;4.60;2.20;;;;;;;10.23;60.19;100474.56;102725;277;105318;-55
2023/06/01 03:01:52;;;;;;;6.70;2.30;;;;;;;10.28;60.15;100475.09;102743;276;113856;-52
2023/06/01 03:04:32;;;;;;;3.70;2.60;;;;;;;10.35;60.06;100476.08;102630;276;93102;-51
2023/06/01 03:07:10;;;;;;;5.10;2.90;;;;;;;10.44;60.10;100471.42;102504;278;98706;-52
2023/06/01 03:09:53;;;;;;;6.20;2.40;;;;;;;10.57;59.85;100471.64;102641;277;119540;-52
2023/06/01 03:12:33;;;;;;;5.10;2.50;;;;;;;10.70;59.72;100473.73;102638;277;104798;-55
2023/06/01 03:15:10;;;;;;;4.40;2.70;;;;;;;10.82;59.58;100472.66;102588;266;114696;-53
2023/06/01 03:17:49;;;;;;;5.00;2.30;;;;;;;10.92;59.43;100472.75;102663;266;95012;-53
2023/06/01 03:20:33;;;;;;;4.40;2.60;;;;;;;11.00;59.45;100471.23;102662;277;96334;-51
2023/06/01 03:23:10;;;;;;;4.20;2.30;;;;;;;11.14;59.18;100464.63;102664;277;120004;-52
2023/06/01 03:25:46;;;;;;;6.30;2.90;;;;;;;11.32;59.14;100465.50;102655;277;105680;-51
2023/06/01 03:28:28;;;;;;;4.90;2.40;;;;;;;11.53;58.54;100463.44;102634;277;113722;-52
2023/06/01 03:31:11;;;;;;;5.70;3.40;;;;;;;12.25;57.90;100457.20;102527;278;95832;-51
2023/06/01 03:33:50;;;;;;;3.90;2.70;;;;;;;13.90;56.60;100458.38;102585;277;97524;-52
2023/06/01 03:36:35;;;;;;;4.00;2.60;;;;;;;15.63;55.04;100445.71;102599;277;119510;-52
2023/06/01 03:39:12;;;;;;;4.20;2.80;;;;;;;17.04;53.09;100443.50;102609;277;105237;-52
2023/06/01 03:41:47;;;;;;;4.80;2.70;;;;;;;18.23;51.22;100440.83;102590;277;114110;-52
2023/06/01 03:44:28;;;;;;;4.10;2.80;;;;;;;19.32;49.53;100436.27;102585;277;93965;-50
2023/06/01 03:47:05;;;;;;;5.60;3.10;;;;;;;20.22;47.78;100437.56;102584;277;97418;-55
2023/06/01 03:49:45;;;;;;;6.20;3.50;;;;;;;20.90;46.11;100437.55;102631;277;120960;-56
2023/06/01 03:52:25;;;;;;;5.00;2.70;;;;;;;21.66;44.39;100440.48;102644;278;104000;-56
2023/06/01 03:55:08;;;;;;;4.20;2.70;;;;;;;22.28;42.94;100436.33;102581;278;115408;-55
2023/06/01 03:57:57;;;;;;;8.70;3.10;;;;;;;22.94;41.68;100434.69;102611;277;93595;-51
2023/06/01 04:00:39;;;;;;;4.60;2.90;;;;;;;23.64;40.16;100430.37;102582;277;97013;-54
2023/06/01 04:03:21;;;;;;;5.20;3.20;;;;;;;24.07;39.19;100434.36;102605;278;120382;-54
2023/06/01 04:06:03;;;;;;;5.30;3.70;;;;;;;24.52;38.02;100431.83;102664;277;104691;-55
2023/06/01 04:08:55;;;;;;;4.00;2.90;;;;;;;25.02;36.48;100426.41;102675;277;114142;-56
2023/06/01 04:11:38;;;;;;;5.00;3.30;;;;;;;25.41;36.04;100428.09;102645;277;94380;-52
2023/06/01 04:14:15;;;;;;;5.60;3.70;;;;;;;25.71;34.92;100431.01;102657;277;98366;-52
2023/06/01 04:17:06;;;;;;;6.50;3.70;;;;;;;25.27;34.38;100426.83;102660;277;120593;-57
2023/06/01 04:19:48;;;;;;;5.90;3.10;;;;;;;23.55;34.80;100430.11;102623;277;105475;-55
2023/06/01 04:22:34;;;;;;;6.60;3.70;;;;;;;22.16;35.50;100428.98;102528;277;113761;-54
2023/06/01 04:25:12;;;;;;;5.20;3.70;;;;;;;21.06;36.76;100426.00;102596;277;95025;-52
2023/06/01 04:27:58;;;;;;;5.50;3.60;;;;;;;20.45;37.58;100421.88;102590;277;96700;-52
2023/06/01 04:30:40;;;;;;;7.80;3.70;;;;;;;19.73;38.11;100423.48;102609;277;120661;-52
2023/06/01 04:33:17;;;;;;;8.40;4.30;;;;;;;19.27;38.84;100419.27;102661;277;105232;-53
2023/06/01 04:35:52;;;;;;;7.90;4.00;;;;;;;18.73;39.66;100421.89;102402;279;116385;-53
2023/06/01 04:38:34;;;;;;;8.50;4.20;;;;;;;18.33;40.45;100424.98;102637;277;94567;-53
2023/06/01 04:41:23;;;;;;;12.40;4.80;;;;;;;18.55;41.13;100418.92;102637;277;98173;-56
2023/06/01 04:44:05;;;;;;;7.10;4.20;;;;;;;19.14;41.16;100416.31;102635;277;119764;-56
2023/06/01 04:46:40;;;;;;;8.90;4.10;;;;;;;20.13;40.37;100415.36;102461;279;108653;-54
2023/06/01 04:49:18;;;;;;;8.10;4.20;;;;;;;21.08;39.32;100412.39;102637;277;113672;-55
2023/06/01 04:52:02;;;;;;;9.10;4.20;;;;;;;21.66;39.02;100414.09;102683;277;94830;-52
2023/06/01 04:54:40;;;;;;;6.40;3.80;;;;;;;22.56;38.33;100406.27;102711;266;97606;-53
2023/06/01 04:57:16;;;;;;;7.00;4.20;;;;;;;23.94;37.24;100407.35;102650;277;119891;-53
2023/06/01 04:59:56;;;;;;;6.10;4.00;;;;;;;25.49;36.29;100403.91;102671;277;105480;-50
2023/06/01 05:02:37;;;;;;;;;;;;;;;26.86;35.01;100398.63;102630;277;114690;-53
2023/06/01 05:05:12;;;;;;;6.20;4.30;;;;;;;27.77;33.41;100389.44;102594;277;94714;-54
2023/06/01 05:07:56;;;;;;;9.30;4.60;;;;;;;28.56;32.36;100387.08;102656;277;97680;-52
2023/06/01 05:10:36;;;;;;;5.40;4.00;;;;;;;29.04;31.35;100383.58;102595;277;118909;-58
2023/06/01 05:13:20;;;;;;;8.10;4.10;;;;;;;29.57;30.66;100381.68;102574;277;106022;-56
2023/06/01 05:16:00;;;;;;;8.00;4.30;;;;;;;30.13;29.97;100382.06;102599;277;113724;-55
2023/06/01 05:18:42;;;;;;;6.60;4.40;;;;;;;30.75;29.34;100374.77;102621;277;93390;-55
2023/06/01 05:21:20;;;;;;;8.40;4.40;;;;;;;30.96;28.59;100370.67;102612;277;98230;-53
2023/06/01 05:23:54;;;;;;;7.90;4.30;;;;;;;31.34;28.19;100365.55;102639;277;120296;-53
2023/06/01 05:26:29;;;;;;;6.00;3.80;;;;;;;31.86;27.72;100365.46;102682;277;103987;-56
2023/06/01 05:29:11;;;;;;;6.30;4.40;;;;;;;32.18;26.96;100365.85;102605;277;115232;-54
2023/06/01 05:31:51;;;;;;;4.80;3.70;;;;;;;32.59;26.72;100364.69;102499;278;92196;-52
2023/06/01 05:34:33;;;;;;;5.90;3.70;;;;;;;32.80;26.28;100364.85;102573;277;97375;-52
2023/06/01 05:37:20;;;;;;;5.90;3.90;;;;;;;32.99;25.89;100363.91;102616;277;121608;-54
2023/06/01 05:40:00;;;;;;;5.70;3.80;;;;;;;33.28;24.99;100363.66;102527;278;105879;-60
2023/06/01 05:42:41;;;;;;;5.20;4.00;;;;;;;33.41;24.47;100361.00;102395;278;114249;-53
2023/06/01 05:45:21;;;;;;;7.70;3.70;;;;;;;33.58;24.28;100358.70;102610;277;94523;-56
2023/06/01 05:47:56;;;;;;;5.30;3.90;;;;;;;33.69;24.05;100358.21;102625;277;96395;-55
2023/06/01 05:50:37;;;;;;;6.60;3.80;;;;;;;33.83;23.83;100360.05;102110;278;591245;-53
2023/06/01 05:53:12;;;;;;;6.40;3.90;;;;;;;34.03;23.55;100360.96;102580;265;105251;-53
2023/06/01 05:55:50;;;;;;;7.40;4.10;;;;;;;34.25;23.04;100359.58;102604;277;112933;-57
2023/06/01 05:58:33;;;;;;;7.20;3.70;;;;;;;34.38;22.71;100358.20;102640;277;92280;-56
2023/06/01 06:01:18;;;;;;;5.60;3.90;;;;;;;34.40;22.80;100358.50;102660;278;97862;-54
2023/06/01 06:04:01;;;;;;;4.60;3.00;;;;;;;34.58;22.92;100356.21;102584;277;120207;-53
2023/06/01 06:06:42;;;;;;;6.70;3.70;;;;;;;34.49;22.71;100359.38;102617;278;105861;-56
2023/06/01 06:09:25;;;;;;;6.50;3.60;;;;;;;34.82;22.93;100354.30;102604;277;112985;-56
2023/06/01 06:12:16;;;;;;;4.60;3.50;;;;;;;35.02;22.32;100354.17;102648;277;95349;-56
2023/06/01 06:15:04;;;;;;;4.60;3.30;;;;;;;35.08;21.85;100355.80;102681;277;96594;-55
2023/06/01 06:17:46;;;;;;;6.10;3.30;;;;;;;35.00;21.70;100357.77;102622;277;119879;-56
2023/06/01 06:20:25;;;;;;;5.30;3.70;;;;;;;35.15;21.59;100354.55;102687;277;104766;-53
2023/06/01 06:23:05;;;;;;;7.30;3.70;;;;;;;35.19;21.41;100350.92;102614;277;114919;-52
2023/06/01 06:25:48;;;;;;;6.70;3.60;;;;;;;35.45;21.01;100347.48;102638;277;94479;-52
2023/06/01 06:28:26;;;;;;;5.90;3.50;;;;;;;35.79;20.93;100343.56;102430;279;96970;-53
2023/06/01 06:31:03;;;;;;;5.40;3.60;;;;;;;36.02;20.84;100338.66;102657;277;120058;-52
2023/06/01 06:33:39;;;;;;;5.40;3.30;;;;;;;36.04;20.74;100339.35;102623;277;106082;-53
2023/06/01 06:36:20;;;;;;;4.80;3.60;;;;;;;36.61;20.33;100339.66;102606;277;114123;-56
2023/06/01 06:38:57;;;;;;;5.20;3.40;;;;;;;36.45;20.19;100338.61;102607;277;94174;-56
2023/06/01 06:41:35;;;;;;;4.90;3.10;;;;;;;36.60;20.48;100337.95;102597;277;97649;-56
2023/06/01 06:44:17;;;;;;;6.00;3.10;;;;;;;36.78;20.19;100333.23;102589;277;119986;-56
2023/06/01 06:47:00;;;;;;;7.30;4.30;;;;;;;37.21;19.84;100339.80;102583;277;105800;-54
2023/06/01 06:49:45;;;;;;;5.10;3.20;;;;;;;37.26;19.67;100337.90;102583;277;114817;-55
2023/06/01 06:52:24;;;;;;;5.40;3.20;;;;;;;37.40;19.88;100338.23;102630;277;94457;-56
2023/06/01 06:55:03;;;;;;;5.00;3.40;;;;;;;37.64;19.13;100334.71;102634;277;97697;-55
2023/06/01 06:57:41;;;;;;;5.70;3.20;;;;;;;37.53;19.34;100330.84;102628;277;120892;-55
2023/06/01 07:00:22;;;;;;;5.80;3.20;;;;;;;37.72;19.20;100331.65;102601;277;104960;-53
2023/06/01 07:02:58;;;;;;;6.30;3.00;;;;;;;37.57;19.20;100327.31;102647;277;113290;-53
2023/06/01 07:05:35;;;;;;;3.80;2.70;;;;;;;37.71;19.54;100327.83;102676;277;94309;-52
2023/06/01 07:08:12;;;;;;;3.40;2.40;;;;;;;37.77;19.63;100322.08;102632;277;97594;-53
2023/06/01 07:10:47;;;;;;;6.80;3.00;;;;;;;37.77;19.33;100313.92;102626;277;121438;-53
2023/06/01 07:13:26;;;;;;;5.30;3.00;;;;;;;37.74;19.24;100313.71;102649;277;105382;-56
2023/06/01 07:16:05;;;;;;;6.10;3.30;;;;;;;38.09;19.29;100316.64;102644;277;114507;-53
2023/06/01 07:18:44;;;;;;;5.00;2.60;;;;;;;38.37;18.33;100315.85;102654;277;93983;-53
2023/06/01 07:21:22;;;;;;;3.70;2.70;;;;;;;38.48;18.43;100317.35;102641;277;97346;-54
2023/06/01 07:24:07;;;;;;;6.50;3.40;;;;;;;38.63;18.40;100314.69;102635;277;122042;-54
2023/06/01 07:26:46;;;;;;;6.90;2.90;;;;;;;38.36;18.16;100311.80;102658;277;105426;-54
2023/06/01 07:29:23;;;;;;;5.10;2.70;;;;;;;38.09;19.01;100308.18;102581;277;115340;-52
2023/06/01 07:32:05;;;;;;;3.80;2.80;;;;;;;38.65;18.45;100306.90;102595;277;94560;-58
2023/06/01 07:34:49;;;;;;;6.10;2.80;;;;;;;39.01;18.21;100305.35;102643;277;98417;-57
2023/06/01 07:37:28;;;;;;;5.00;2.80;;;;;;;39.01;17.45;100299.55;102668;277;121495;-56
2023/06/01 07:40:14;;;;;;;5.50;3.20;;;;;;;38.69;17.70;100299.70;102650;277;104132;-56
2023/06/01 07:42:59;;;;;;;5.90;3.50;;;;;;;38.58;17.44;100300.80;102648;278;112902;-53
2023/06/01 07:45:40;;;;;;;3.90;2.50;;;;;;;38.23;18.04;100300.95;102643;277;94539;-53
2023/06/01 07:48:18;;;;;;;5.70;2.40;;;;;;;38.13;18.39;100297.21;102423;277;98271;-54
2023/06/01 07:50:57;;;;;;;4.70;2.30;;;;;;;38.32;18.44;100292.32;102678;277;120493;-54
2023/06/01 07:53:34;;;;;;;3.70;2.80;;;;;;;38.39;18.00;100291.08;102660;277;105375;-52
2023/06/01 07:56:16;;;;;;;3.60;2.40;;;;;;;38.51;17.92;100294.32;102603;277;114874;-57
2023/06/01 07:58:59;;;;;;;4.90;2.50;;;;;;;38.29;18.13;100290.41;102610;277;93583;-57
2023/06/01 08:01:41;;;;;;;4.30;2.30;;;;;;;38.32;17.98;100288.68;102664;277;96610;-54
2023/06/01 08:04:21;;;;;;;3.50;2.80;;;;;;;38.41;17.47;100289.65;102639;277;120416;-53
2023/06/01 08:07:02;;;;;;;3.00;2.20;;;;;;;38.44;18.06;100291.55;102611;277;105873;-56
2023/06/01 08:09:39;;;;;;;4.80;2.20;;;;;;;38.26;17.92;100287.44;102597;277;113820;-56
2023/06/01 08:12:21;;;;;;;7.20;3.00;;;;;;;38.35;17.99;100285.75;102664;277;93863;-56
2023/06/01 08:14:59;;;;;;;5.70;2.60;;;;;;;38.56;17.79;100282.30;102617;277;97535;-56
2023/06/01 08:17:43;;;;;;;4.50;2.10;;;;;;;38.50;17.71;100278.59;102606;277;120684;-56
2023/06/01 08:20:21;;;;;;;4.50;2.60;;;;;;;38.44;17.90;100279.14;102598;277;104760;-53
2023/06/01 08:23:03;;;;;;;4.40;2.80;;;;;;;38.71;17.47;100278.73;102608;278;114213;-53
2023/06/01 08:25:37;;;;;;;4.50;2.50;;;;;;;38.46;17.63;100276.17;102608;277;93798;-53
2023/06/01 08:28:16;;;;;;;4.90;2.50;;;;;;;38.62;17.75;100273.85;102658;277;97388;-52
2023/06/01 08:30:55;;;;;;;5.40;2.90;;;;;;;38.81;17.45;100270.61;102608;277;120660;-53
2023/06/01 08:33:38;;;;;;;5.30;2.50;;;;;;;38.57;17.57;100270.23;102617;277;104543;-53
2023/06/01 08:36:23;;;;;;;3.20;2.50;;;;;;;38.42;17.93;100266.20;102642;278;112658;-57
2023/06/01 08:39:23;;;;;;;5.40;2.40;;;;;;;38.39;17.44;100266.23;102642;277;93760;-57
2023/06/01 08:42:18;;;;;;;4.60;2.30;;;;;;;38.35;17.57;100265.83;102618;278;99022;-55
2023/06/01 08:45:01;;;;;;;4.00;2.20;;;;;;;38.31;17.70;100263.35;102604;277;120218;-53
2023/06/01 08:47:39;;;;;;;4.10;2.30;;;;;;;38.06;18.24;100258.88;102607;278;105488;-53
2023/06/01 08:50:20;;;;;;;2.50;2.10;;;;;;;37.98;17.98;100254.05;102716;277;113364;-54
2023/06/01 08:53:00;;;;;;;3.60;2.30;;;;;;;37.85;18.29;100250.27;102624;277;94311;-52
2023/06/01 08:55:38;;;;;;;2.60;2.20;;;;;;;37.25;18.36;100242.95;102670;277;97313;-55
2023/06/01 08:58:13;;;;;;;3.60;2.20;;;;;;;36.72;18.65;100239.85;102598;277;119354;-56
2023/06/01 09:00:53;;;;;;;4.10;2.30;;;;;;;36.04;18.83;100237.30;102643;277;105462;-53
2023/06/01 09:03:30;;;;;;;2.70;2.30;;;;;;;35.00;18.93;100232.27;102625;277;113736;-54
2023/06/01 09:06:13;;;;;;;4.90;2.90;;;;;;;34.33;19.93;100234.34;102556;277;92902;-56
2023/06/01 09:08:52;;;;;;;3.90;2.40;;;;;;;33.82;20.13;100233.17;102633;277;97544;-56
2023/06/01 09:11:31;;;;;;;3.40;2.30;;;;;;;33.44;20.85;100228.27;102611;277;120164;-57
2023/06/01 09:14:23;;;;;;;4.30;2.10;;;;;;;33.13;20.93;100229.79;102638;278;104722;-58
2023/06/01 09:16:59;;;;;;;4.90;2.90;;;;;;;32.80;21.52;100232.41;102633;278;114091;-56
2023/06/01 09:19:45;;;;;;;3.00;2.40;;;;;;;32.52;21.80;100225.95;102601;277;94979;-56
2023/06/01 09:22:27;;;;;;;5.00;3.00;;;;;;;32.47;22.15;100227.60;102746;277;95872;-51
2023/06/01 09:25:12;;;;;;;4.20;2.40;;;;;;;32.09;22.17;100224.35;102689;277;120681;-53
2023/06/01 09:27:56;;;;;;;4.10;2.30;;;;;;;31.74;22.52;100224.58;102677;277;105856;-56
2023/06/01 09:30:44;;;;;;;3.90;2.50;;;;;;;31.52;22.59;100215.90;102570;277;112672;-56
2023/06/01 09:33:31;;;;;;;7.00;2.30;;;;;;;30.98;22.72;100214.73;102634;277;93723;-55
2023/06/01 09:36:09;;;;;;;6.40;2.50;;;;;;;30.62;23.72;100216.46;102660;277;96685;-55
2023/06/01 09:38:48;;;;;;;3.50;2.40;;;;;;;30.65;24.00;100214.65;102602;277;120056;-55
2023/06/01 09:41:43;;;;;;;5.00;2.40;;;;;;;30.63;24.14;100216.40;102654;277;105404;-57
2023/06/01 09:44:26;;;;;;;3.40;2.70;;;;;;;30.47;24.34;100212.77;102620;277;114411;-57
2023/06/01 09:47:04;;;;;;;4.70;2.70;;;;;;;30.56;24.52;100207.06;102666;277;93002;-53
2023/06/01 09:49:42;;;;;;;6.80;2.70;;;;;;;30.66;24.64;100203.10;102610;277;98367;-55
2023/06/01 09:52:19;;;;;;;5.70;2.80;;;;;;;30.47;25.04;100201.77;102654;277;119808;-55
2023/06/01 09:55:08;;;;;;;5.90;2.20;;;;;;;30.39;25.30;100200.75;102596;277;105786;-54
2023/06/01 09:57:52;;;;;;;3.30;2.40;;;;;;;30.23;25.29;100202.02;102608;277;114259;-54
2023/06/01 10:00:37;;;;;;;6.20;2.40;;;;;;;30.14;25.48;100199.84;102635;277;94621;-53
2023/06/01 10:03:23;;;;;;;5.10;3.00;;;;;;;30.26;25.62;100192.92;102621;277;97060;-54
2023/06/01 10:06:02;;;;;;;5.50;3.40;;;;;;;30.25;25.57;100192.36;102665;277;120879;-56
2023/06/01 10:08:38;;;;;;;5.30;2.90;;;;;;;30.25;25.51;100192.23;102677;277;103771;-56
2023/06/01 10:11:13;;;;;;;5.50;2.30;;;;;;;30.11;25.58;100195.14;102683;277;114475;-57
2023/06/01 10:13:56;;;;;;;4.60;2.60;;;;;;;30.01;25.94;100194.20;102441;278;97812;-57
2023/06/01 10:16:37;;;;;;;5.00;2.30;;;;;;;29.71;26.03;100191.92;102668;278;96986;-52
2023/06/01 10:19:16;;;;;;;6.20;2.70;;;;;;;29.53;26.19;100193.18;102679;277;120883;-53
2023/06/01 10:21:57;;;;;;;3.30;2.20;;;;;;;29.41;25.99;100187.13;102614;277;103179;-56
2023/06/01 10:24:41;;;;;;;4.40;2.60;;;;;;;29.59;26.12;100190.10;102628;277;113908;-56
2023/06/01 10:27:29;;;;;;;5.80;2.70;;;;;;;29.72;26.05;100187.48;102619;277;93465;-57
2023/06/01 10:30:18;;;;;;;7.60;2.90;;;;;;;29.64;25.33;100181.55;102651;277;98103;-66
2023/06/01 10:32:55;;;;;;;4.80;2.40;;;;;;;29.37;25.76;100187.45;102549;277;120455;-57
2023/06/01 10:35:57;;;;;;;6.80;3.00;;;;;;;29.29;26.26;100187.95;102634;277;105884;-53
2023/06/01 10:38:45;;;;;;;5.50;2.40;;;;;;;29.47;26.30;100180.60;102600;277;114614;-54
2023/06/01 10:41:37;;;;;;;3.80;2.20;;;;;;;29.41;26.76;100182.25;102654;277;94799;-56
2023/06/01 10:44:48;;;;;;;4.30;2.40;;;;;;;29.45;26.68;100170.98;102587;277;96388;-55
2023/06/01 10:47:49;;;;;;;5.00;2.90;;;;;;;29.46;26.55;100162.48;102628;277;120720;-52
2023/06/01 10:50:26;;;;;;;5.50;2.80;;;;;;;29.56;26.75;100165.48;102627;277;105217;-52
2023/06/01 10:53:34;;;;;;;4.70;2.50;;;;;;;29.62;26.47;100167.73;102616;277;113637;-53
2023/06/01 10:56:24;;;;;;;4.70;2.30;;;;;;;29.58;27.03;100163.90;102620;277;94413;-55
2023/06/01 10:59:25;;;;;;;5.20;2.60;;;;;;;29.51;26.97;100155.94;102655;277;97918;-56
2023/06/01 11:02:07;;;;;;;4.50;2.40;;;;;;;29.48;26.44;100149.23;102483;277;121832;-56
2023/06/01 11:04:48;;;;;;;4.20;2.60;;;;;;;29.36;26.53;100148.76;102654;277;106256;-56
2023/06/01 11:07:42;;;;;;;3.50;2.30;;;;;;;29.28;26.23;100148.35;102707;277;114348;-52
2023/06/01 11:10:58;;;;;;;6.10;2.60;;;;;;;29.22;26.55;100145.80;102734;276;93780;-53
2023/06/01 11:13:43;;;;;;;2.70;2.10;;;;;;;29.29;27.04;100139.58;102686;276;96226;-52
2023/06/01 11:16:36;;;;;;;4.10;2.40;;;;;;;29.25;26.86;100136.29;102699;277;120524;-53
2023/06/01 11:19:20;;;;;;;3.90;2.70;;;;;;;29.11;26.88;100131.01;102768;276;106156;-53
2023/06/01 11:22:04;;;;;;;4.40;2.40;;;;;;;29.20;27.12;100127.78;102738;266;113174;-62
2023/06/01 11:24:44;;;;;;;3.40;2.20;;;;;;;29.20;26.99;100125.93;102749;276;94724;-62
2023/06/01 11:27:29;;;;;;;4.30;2.50;;;;;;;29.17;26.95;100126.38;102761;277;95682;-54
2023/06/01 11:30:11;;;;;;;6.00;2.60;;;;;;;29.14;27.32;100128.49;102723;276;121379;-52
2023/06/01 11:32:55;;;;;;;7.20;2.50;;;;;;;29.10;27.47;100123.48;102555;277;105748;-56
2023/06/01 11:35:28;;;;;;;;;;;;;;;29.12;27.76;100122.69;102733;276;112589;-54
2023/06/01 11:38:08;;;;;;;6.00;2.40;;;;;;;28.95;27.23;100120.08;102741;276;93512;-53
2023/06/01 11:41:06;;;;;;;6.10;2.80;;;;;;;28.86;27.43;100117.89;102730;276;96544;-56
2023/06/01 11:43:46;;;;;;;4.70;2.40;;;;;;;28.74;26.62;100113.35;102716;276;120965;-56
2023/06/01 11:46:36;;;;;;;4.80;2.80;;;;;;;28.71;26.61;100112.14;102750;277;106189;-56
2023/06/01 11:49:21;;;;;;;3.40;2.30;;;;;;;28.58;26.17;100106.48;102751;276;115024;-56
2023/06/01 11:52:04;;;;;;;6.30;3.00;;;;;;;28.55;26.22;100106.28;102781;277;94739;-55
2023/06/01 11:54:41;;;;;;;4.60;2.50;;;;;;;28.49;26.61;100098.85;102776;277;96531;-54
2023/06/01 11:57:23;;;;;;;5.70;2.60;;;;;;;28.37;26.96;100098.38;102551;277;119915;-56
2023/06/01 12:00:03;;;;;;;7.40;2.90;;;;;;;28.33;27.12;100094.30;102776;277;106176;-56
2023/06/01 12:02:50;;;;;;;6.30;2.90;;;;;;;28.37;27.64;100087.83;102764;265;114382;-52
2023/06/01 12:05:27;;;;;;;6.90;2.40;;;;;;;28.37;27.56;100090.83;102717;277;94954;-54
2023/06/01 12:08:05;;;;;;;4.60;2.50;;;;;;;28.38;27.27;100088.91;102741;277;98058;-53
2023/06/01 12:10:40;;;;;;;4.90;2.70;;;;;;;28.28;27.01;100081.80;102744;276;119036;-55
2023/06/01 12:13:18;;;;;;;4.70;2.40;;;;;;;28.22;27.45;100080.66;102726;276;104354;-56
2023/06/01 12:16:02;;;;;;;5.30;2.30;;;;;;;28.20;27.51;100080.62;102729;277;114341;-55
2023/06/01 12:18:43;;;;;;;6.00;2.70;;;;;;;28.20;27.14;100076.23;102702;276;93577;-56
2023/06/01 12:21:22;;;;;;;4.90;2.40;;;;;;;28.11;27.24;100077.76;102754;277;97419;-53
2023/06/01 12:23:59;;;;;;;6.50;3.40;;;;;;;28.13;27.74;100078.60;102708;277;120779;-53
2023/06/01 12:26:42;;;;;;;8.70;3.00;;;;;;;28.07;27.77;100071.51;102753;277;105148;-56
2023/06/01 12:29:41;;;;;;;5.60;2.40;;;;;;;28.04;27.92;100063.42;102730;277;114621;-56